Saint Francisville, Louisiana
Current Conditions -  °F | °C
As of 6:35 PM on Saturday 25 Oct 2014 (Local Time) from KHZR Reporting Station
Clear Clear  
Wind Chill: 71°   Ceiling: Unl
Heat Index: 71°   Visibility: 10mi
Dew Point: 56°   Wind: 0mph
Humidity: 59%   Direction: NA
Pressure: 30.08"   Gusts: NA
Location:  30.78°N, 91.38°W
Report Text: KHZR 252335Z AUTO 00000KT 10SM CLR 22/14 A3008 RMK AO2 T02190136
Loading
Personal Weather Stations






























Interactive Weather Map
Tropical Storm Tracking
New forecast layout! Learn more

10-Day Weather Forecast

Advertisements
Track Severe Weather on mobile